Time;durP1;ratioP1;P1;durP2;ratioP2;P2;SDS_P1;SDS_P2;PMS_P1;PMS_P2;Temp;Humidity;BMP_temperature;BMP_pressure;BME280_temperature;BME280_humidity;BME280_pressure;Samples;Min_cycle;Max_cycle;Signal;HPM_P1;HPM_P2
2024/02/01 00:01:33;;;;;;;0.50;0.50;;;5.80;99.90;;;;;;4407386;32;20101;-73
2024/02/01 00:03:59;;;;;;;4.12;0.90;;;5.80;99.90;;;;;;4404355;32;20078;-73
2024/02/01 00:06:24;;;;;;;0.70;0.70;;;5.70;99.90;;;;;;4407724;32;20517;-73
2024/02/01 00:08:50;;;;;;;0.40;0.40;;;5.70;99.90;;;;;;4408390;32;20069;-74
2024/02/01 00:11:15;;;;;;;0.50;0.50;;;5.70;99.90;;;;;;4408325;32;20074;-73
2024/02/01 00:13:41;;;;;;;0.45;0.45;;;5.70;99.90;;;;;;4407499;32;20073;-73
2024/02/01 00:16:06;;;;;;;0.30;0.30;;;5.70;99.90;;;;;;4403357;32;20086;-74
2024/02/01 00:18:32;;;;;;;0.37;0.37;;;5.70;99.90;;;;;;4409774;32;20085;-74
2024/02/01 00:20:57;;;;;;;0.30;0.30;;;5.70;99.90;;;;;;4402577;32;20085;-74
2024/02/01 00:23:23;;;;;;;1.37;0.85;;;5.70;99.90;;;;;;4409214;32;20131;-73
2024/02/01 00:25:48;;;;;;;0.40;0.40;;;5.60;99.90;;;;;;4406694;32;20524;-73
2024/02/01 00:28:14;;;;;;;0.45;0.45;;;5.60;99.90;;;;;;4404032;32;20504;-73
2024/02/01 00:30:41;;;;;;;0.40;0.40;;;5.60;99.90;;;;;;4404291;32;20078;-73
2024/02/01 00:33:06;;;;;;;0.40;0.40;;;5.60;99.90;;;;;;4407940;32;20066;-73
2024/02/01 00:35:31;;;;;;;0.40;0.40;;;5.70;99.90;;;;;;4406564;32;20073;-73
2024/02/01 00:37:57;;;;;;;3.03;0.77;;;5.70;99.90;;;;;;4403398;32;20742;-74
2024/02/01 00:40:22;;;;;;;6.72;0.93;;;5.70;99.90;;;;;;4405660;32;20123;-73
2024/02/01 00:42:48;;;;;;;0.43;0.43;;;5.70;99.90;;;;;;4405142;32;20080;-73
2024/02/01 00:45:14;;;;;;;0.40;0.40;;;5.80;99.90;;;;;;4401905;32;20089;-73
2024/02/01 00:47:39;;;;;;;0.45;0.45;;;5.80;99.90;;;;;;4404202;32;20501;-73
2024/02/01 00:50:05;;;;;;;0.73;0.60;;;5.80;99.90;;;;;;4404653;32;20074;-73
2024/02/01 00:52:30;;;;;;;0.45;0.45;;;5.80;99.90;;;;;;4406813;32;21501;-73
2024/02/01 00:54:56;;;;;;;0.40;0.40;;;5.80;99.90;;;;;;4403093;32;20142;-73
2024/02/01 00:57:22;;;;;;;0.60;0.60;;;5.80;99.90;;;;;;4405388;32;20151;-74
2024/02/01 00:59:48;;;;;;;0.30;0.30;;;5.80;99.90;;;;;;4405414;32;20080;-73
2024/02/01 01:02:14;;;;;;;0.50;0.50;;;5.80;99.90;;;;;;4410988;32;20085;-74
2024/02/01 01:04:40;;;;;;;0.35;0.35;;;5.80;99.90;;;;;;4407318;32;20510;-73
2024/02/01 01:07:05;;;;;;;0.40;0.40;;;5.80;99.90;;;;;;4406372;32;20094;-73
2024/02/01 01:09:31;;;;;;;0.35;0.35;;;5.80;99.90;;;;;;4402886;32;20090;-73
2024/02/01 01:11:56;;;;;;;0.57;0.57;;;5.90;99.90;;;;;;4403555;32;21496;-73
2024/02/01 01:14:21;;;;;;;0.30;0.30;;;5.90;99.90;;;;;;4407888;32;20471;-73
2024/02/01 01:16:47;;;;;;;0.37;0.37;;;5.90;99.90;;;;;;4404982;32;20098;-72
2024/02/01 01:19:12;;;;;;;0.50;0.50;;;5.90;99.90;;;;;;4404982;32;20312;-73
2024/02/01 01:21:38;;;;;;;0.50;0.50;;;5.90;99.90;;;;;;4405420;32;20062;-73
2024/02/01 01:24:04;;;;;;;0.43;0.43;;;5.90;99.90;;;;;;4409422;32;20066;-74
2024/02/01 01:26:29;;;;;;;0.30;0.30;;;5.90;99.90;;;;;;4403199;32;20081;-73
2024/02/01 01:28:55;;;;;;;0.95;0.60;;;5.90;99.90;;;;;;4401436;32;20301;-73
2024/02/01 01:31:20;;;;;;;0.30;0.30;;;5.90;99.90;;;;;;4403756;32;20086;-73
2024/02/01 01:33:46;;;;;;;0.30;0.30;;;5.90;99.90;;;;;;4405811;32;20106;-75
2024/02/01 01:36:11;;;;;;;1.37;0.65;;;5.90;99.90;;;;;;4402941;32;20085;-73
2024/02/01 01:38:37;;;;;;;0.40;0.40;;;5.90;99.90;;;;;;4407559;32;20073;-73
2024/02/01 01:41:03;;;;;;;0.30;0.30;;;5.90;99.90;;;;;;4406630;32;20086;-73
2024/02/01 01:43:28;;;;;;;4.18;0.77;;;5.90;99.90;;;;;;4405273;32;20649;-74
2024/02/01 01:46:03;;;;;;;0.45;0.45;;;5.90;99.90;;;;;;4404234;32;20070;-74
2024/02/01 01:48:29;;;;;;;0.50;0.50;;;5.90;99.90;;;;;;4408865;32;20085;-73
2024/02/01 01:50:55;;;;;;;0.45;0.45;;;6.00;99.90;;;;;;4404909;32;20469;-74
2024/02/01 01:53:21;;;;;;;0.55;0.55;;;5.90;99.90;;;;;;4402303;32;20081;-73
2024/02/01 01:55:47;;;;;;;1.08;1.05;;;6.00;99.90;;;;;;4401308;32;20102;-74
2024/02/01 01:58:14;;;;;;;0.60;0.50;;;6.00;99.90;;;;;;4401263;32;20097;-74
2024/02/01 02:00:40;;;;;;;0.77;0.68;;;6.00;99.90;;;;;;4408007;32;20132;-74
2024/02/01 02:03:06;;;;;;;0.40;0.40;;;6.10;99.90;;;;;;4404401;32;20135;-74
2024/02/01 02:05:31;;;;;;;0.47;0.47;;;6.00;99.90;;;;;;4408243;32;20565;-74
2024/02/01 02:07:57;;;;;;;0.40;0.40;;;6.00;99.90;;;;;;4406698;32;20081;-74
2024/02/01 02:10:22;;;;;;;0.40;0.40;;;6.00;99.90;;;;;;4406310;32;20086;-74
2024/02/01 02:12:48;;;;;;;2.45;1.15;;;6.00;99.90;;;;;;4403078;32;20159;-73
2024/02/01 02:15:16;;;;;;;0.40;0.40;;;6.00;99.90;;;;;;4403851;32;20077;-73
2024/02/01 02:17:41;;;;;;;0.50;0.50;;;6.10;99.90;;;;;;4401642;32;20477;-73
2024/02/01 02:20:17;;;;;;;1.45;0.73;;;6.00;99.90;;;;;;4402938;32;20072;-72
2024/02/01 02:22:45;;;;;;;0.25;0.25;;;6.00;99.90;;;;;;4401968;32;20107;-73
2024/02/01 02:25:13;;;;;;;0.30;0.30;;;6.00;99.90;;;;;;4402657;32;20654;-73
2024/02/01 02:27:40;;;;;;;0.30;0.30;;;6.00;99.90;;;;;;4401415;32;20573;-73
2024/02/01 02:30:07;;;;;;;0.45;0.45;;;6.00;99.90;;;;;;4401954;32;20078;-72
2024/02/01 02:32:32;;;;;;;0.40;0.40;;;6.00;99.90;;;;;;4408522;32;20530;-73
2024/02/01 02:34:58;;;;;;;0.30;0.30;;;6.00;99.90;;;;;;4404757;32;20131;-73
2024/02/01 02:37:23;;;;;;;0.40;0.30;;;5.90;99.90;;;;;;4407631;32;20095;-73
2024/02/01 02:39:49;;;;;;;3.97;1.40;;;5.90;99.90;;;;;;4402811;32;20148;-73
2024/02/01 02:42:15;;;;;;;1.75;0.55;;;5.90;99.90;;;;;;4402386;32;20139;-72
2024/02/01 02:44:41;;;;;;;0.60;0.60;;;5.70;99.90;;;;;;4402643;32;20529;-74
2024/02/01 02:47:06;;;;;;;0.40;0.40;;;5.70;99.90;;;;;;4403057;32;20094;-74
2024/02/01 02:49:32;;;;;;;0.50;0.50;;;5.70;99.90;;;;;;4404942;32;20077;-73
2024/02/01 02:51:58;;;;;;;0.68;0.68;;;5.60;99.90;;;;;;4408575;32;20082;-73
2024/02/01 02:54:24;;;;;;;0.40;0.40;;;5.60;99.90;;;;;;4408165;32;20073;-72
2024/02/01 02:56:49;;;;;;;1.17;0.60;;;5.60;99.90;;;;;;4404430;32;20131;-72
2024/02/01 02:59:15;;;;;;;0.50;0.50;;;5.60;99.90;;;;;;4405391;32;20097;-74
2024/02/01 03:04:08;;;;;;;0.50;0.50;;;5.50;99.90;;;;;;4404564;32;20069;-75
2024/02/01 03:06:34;;;;;;;0.40;0.40;;;5.50;99.90;;;;;;4400783;32;20077;-75
2024/02/01 03:08:59;;;;;;;0.50;0.50;;;5.40;99.90;;;;;;4403760;32;20525;-75
2024/02/01 03:11:25;;;;;;;1.10;0.93;;;5.40;99.90;;;;;;4403103;32;20058;-75
2024/02/01 03:13:50;;;;;;;0.52;0.52;;;5.40;99.90;;;;;;4401983;32;20080;-75
2024/02/01 03:16:18;;;;;;;0.60;0.60;;;5.40;99.90;;;;;;4404433;32;20061;-75
2024/02/01 03:18:45;;;;;;;0.40;0.40;;;5.40;99.90;;;;;;4409384;32;20065;-75
2024/02/01 03:21:11;;;;;;;1.80;0.68;;;5.40;99.90;;;;;;4405893;32;20098;-74
2024/02/01 03:23:39;;;;;;;2.37;1.58;;;5.40;99.90;;;;;;4403916;32;20151;-74
2024/02/01 03:26:04;;;;;;;0.50;0.50;;;5.30;99.90;;;;;;4404278;32;20584;-74
2024/02/01 03:28:30;;;;;;;0.37;0.37;;;5.30;99.90;;;;;;4400505;32;20136;-74
2024/02/01 03:30:56;;;;;;;0.30;0.30;;;5.30;99.90;;;;;;4405908;32;20074;-74
2024/02/01 03:33:22;;;;;;;0.40;0.40;;;5.20;99.90;;;;;;4405603;32;20069;-74
2024/02/01 03:35:49;;;;;;;2.55;0.73;;;5.30;99.90;;;;;;4400264;32;20616;-74
2024/02/01 03:38:15;;;;;;;4.30;0.85;;;5.30;99.90;;;;;;4402720;32;20522;-74
2024/02/01 03:40:41;;;;;;;0.35;0.32;;;5.30;99.90;;;;;;4399531;32;20081;-75
2024/02/01 03:43:07;;;;;;;0.40;0.40;;;5.40;99.90;;;;;;4401405;32;20053;-75
2024/02/01 03:45:32;;;;;;;0.88;0.88;;;5.30;99.90;;;;;;4401379;32;20140;-74
2024/02/01 03:47:58;;;;;;;0.50;0.50;;;5.30;99.90;;;;;;4404942;32;20074;-74
2024/02/01 03:50:23;;;;;;;0.30;0.30;;;5.20;99.90;;;;;;4401418;32;20086;-74
2024/02/01 03:52:49;;;;;;;0.50;0.50;;;5.30;99.90;;;;;;4405121;32;20576;-74
2024/02/01 03:55:17;;;;;;;0.85;0.85;;;5.30;99.90;;;;;;4402351;32;20104;-74
2024/02/01 03:57:44;;;;;;;0.40;0.40;;;5.30;99.90;;;;;;4400663;32;20098;-74
2024/02/01 04:02:35;;;;;;;2.15;1.37;;;5.20;99.90;;;;;;4401446;32;20077;-74
2024/02/01 04:05:00;;;;;;;0.60;0.60;;;5.20;99.90;;;;;;4400147;32;20085;-75
2024/02/01 04:07:26;;;;;;;0.77;0.77;;;5.20;99.90;;;;;;4400538;32;20117;-75
2024/02/01 04:09:51;;;;;;;0.30;0.30;;;5.20;99.90;;;;;;4404282;32;20427;-75
2024/02/01 04:12:17;;;;;;;0.28;0.28;;;5.20;99.90;;;;;;4404030;32;20706;-75
2024/02/01 04:14:42;;;;;;;0.65;0.55;;;5.20;99.90;;;;;;4400422;32;20089;-75
2024/02/01 04:17:08;;;;;;;1.17;1.10;;;5.10;99.90;;;;;;4405045;32;20515;-75
2024/02/01 04:19:35;;;;;;;0.50;0.50;;;5.20;99.90;;;;;;4405902;32;20106;-75
2024/02/01 04:22:01;;;;;;;20.42;1.90;;;5.20;99.90;;;;;;4410597;32;20069;-75
2024/02/01 04:24:26;;;;;;;0.30;0.30;;;5.20;99.90;;;;;;4404013;32;20081;-75
2024/02/01 04:26:52;;;;;;;1.40;1.30;;;5.20;99.90;;;;;;4402389;32;20125;-75
2024/02/01 04:29:17;;;;;;;0.62;0.62;;;5.20;99.90;;;;;;4403579;32;20514;-75
2024/02/01 04:31:43;;;;;;;0.40;0.40;;;5.20;99.90;;;;;;4405533;32;20132;-75
2024/02/01 04:34:09;;;;;;;0.30;0.30;;;5.30;99.90;;;;;;4406914;32;20081;-75
2024/02/01 04:36:34;;;;;;;0.30;0.30;;;5.30;99.90;;;;;;4406185;32;20185;-75
2024/02/01 04:39:03;;;;;;;0.30;0.30;;;5.30;99.90;;;;;;4407754;32;20094;-75
2024/02/01 04:41:30;;;;;;;0.60;0.60;;;5.30;99.90;;;;;;4407350;32;20438;-75
2024/02/01 04:43:55;;;;;;;0.65;0.65;;;5.30;99.90;;;;;;4404454;32;20081;-75
2024/02/01 04:46:23;;;;;;;0.40;0.40;;;5.20;99.90;;;;;;4405873;32;20136;-75
2024/02/01 04:48:49;;;;;;;0.30;0.30;;;5.20;99.90;;;;;;4406079;32;20558;-75
2024/02/01 04:51:14;;;;;;;0.75;0.60;;;5.30;99.90;;;;;;4407077;32;20061;-75
2024/02/01 04:53:40;;;;;;;1.17;0.95;;;5.30;99.90;;;;;;4407073;32;20587;-75
2024/02/01 04:56:07;;;;;;;0.50;0.50;;;5.30;99.90;;;;;;4405602;32;20082;-75
2024/02/01 04:58:34;;;;;;;0.30;0.30;;;5.30;99.90;;;;;;4406251;32;20080;-75
2024/02/01 05:00:59;;;;;;;0.50;0.50;;;5.40;99.90;;;;;;4405469;32;20683;-75
2024/02/01 05:03:25;;;;;;;0.30;0.30;;;5.40;99.90;;;;;;4408175;32;20078;-75
2024/02/01 05:05:50;;;;;;;0.55;0.55;;;5.40;99.90;;;;;;4404152;32;20133;-74
2024/02/01 05:08:16;;;;;;;0.40;0.40;;;5.40;99.90;;;;;;4408194;32;20097;-75
2024/02/01 05:10:43;;;;;;;0.50;0.50;;;5.40;99.90;;;;;;4402509;32;20124;-74
2024/02/01 05:13:11;;;;;;;0.60;0.60;;;5.40;99.90;;;;;;4404601;32;20085;-74
2024/02/01 05:15:36;;;;;;;0.30;0.30;;;5.50;99.90;;;;;;4401689;32;20097;-75
2024/02/01 05:18:05;;;;;;;0.50;0.50;;;5.50;99.90;;;;;;4408786;32;20070;-75
2024/02/01 05:20:31;;;;;;;0.55;0.55;;;5.50;99.90;;;;;;4406067;32;20133;-75
2024/02/01 05:22:58;;;;;;;0.30;0.30;;;5.50;99.90;;;;;;4398577;32;20515;-75
2024/02/01 05:27:50;;;;;;;0.60;0.60;;;5.60;99.90;;;;;;4401227;32;20514;-75
2024/02/01 05:30:16;;;;;;;0.55;0.55;;;5.70;99.90;;;;;;4401388;32;20142;-75
2024/02/01 05:32:51;;;;;;;0.45;0.45;;;5.70;99.90;;;;;;4403387;32;20069;-75
2024/02/01 05:35:17;;;;;;;0.52;0.52;;;5.70;99.90;;;;;;4407741;32;20074;-75
2024/02/01 05:37:46;;;;;;;0.47;0.47;;;5.80;99.90;;;;;;4400155;32;20082;-75
2024/02/01 05:40:16;;;;;;;0.52;0.52;;;5.80;99.90;;;;;;4403525;32;20081;-75
2024/02/01 05:42:43;;;;;;;0.65;0.65;;;5.80;99.90;;;;;;4403468;32;20202;-74
2024/02/01 05:45:09;;;;;;;0.35;0.35;;;5.90;99.90;;;;;;4405818;32;20120;-73
2024/02/01 05:47:34;;;;;;;0.40;0.40;;;5.90;99.90;;;;;;4405743;32;20086;-74
2024/02/01 05:50:01;;;;;;;0.68;0.68;;;5.90;99.90;;;;;;4408847;32;20509;-74
2024/02/01 05:52:26;;;;;;;0.40;0.40;;;5.90;99.90;;;;;;4401909;32;20143;-74
2024/02/01 05:54:54;;;;;;;2.30;1.27;;;5.90;99.90;;;;;;4403668;32;20552;-74
2024/02/01 05:57:20;;;;;;;0.60;0.60;;;5.90;99.90;;;;;;4404519;32;20065;-73
2024/02/01 05:59:45;;;;;;;0.30;0.30;;;5.90;99.90;;;;;;4400253;32;20073;-74
2024/02/01 06:02:11;;;;;;;0.40;0.40;;;5.90;99.90;;;;;;4404140;32;20132;-75
2024/02/01 06:04:37;;;;;;;0.70;0.70;;;6.00;99.90;;;;;;4408401;32;20086;-73
2024/02/01 06:07:04;;;;;;;0.93;0.93;;;6.00;99.90;;;;;;4390213;32;20790;-75
2024/02/01 06:09:30;;;;;;;8.80;0.65;;;6.00;99.90;;;;;;4405177;32;20069;-75
2024/02/01 06:11:56;;;;;;;0.50;0.50;;;6.00;99.90;;;;;;4400469;32;20573;-74
2024/02/01 06:14:21;;;;;;;0.90;0.47;;;6.00;99.90;;;;;;4388301;32;20103;-74
2024/02/01 06:16:47;;;;;;;6.87;2.30;;;6.10;99.90;;;;;;4402873;32;20066;-74
2024/02/01 06:19:13;;;;;;;0.40;0.40;;;6.10;99.90;;;;;;4401157;32;20514;-75
2024/02/01 06:21:38;;;;;;;1.73;1.15;;;6.10;99.90;;;;;;4384081;32;20152;-75
2024/02/01 06:24:05;;;;;;;0.55;0.55;;;6.10;99.90;;;;;;4396739;32;20533;-74
2024/02/01 06:26:30;;;;;;;5.15;0.75;;;6.10;99.90;;;;;;4384061;32;20094;-75
2024/02/01 06:29:07;;;;;;;0.60;0.60;;;6.10;99.90;;;;;;4391188;32;20085;-75
2024/02/01 06:31:37;;;;;;;0.98;0.47;;;6.10;99.90;;;;;;4396507;32;20148;-75
2024/02/01 06:34:12;;;;;;;0.35;0.35;;;6.10;99.90;;;;;;4397413;32;20466;-74
2024/02/01 06:36:40;;;;;;;0.68;0.60;;;6.20;99.90;;;;;;4395922;32;20434;-75
2024/02/01 06:39:16;;;;;;;0.45;0.45;;;6.20;99.90;;;;;;4396698;32;20101;-75
2024/02/01 06:44:25;;;;;;;0.30;0.30;;;6.30;99.90;;;;;;4399275;32;20294;-75
2024/02/01 06:51:07;;;;;;;1.12;0.40;;;6.20;99.90;;;;;;4393144;32;20161;-74
2024/02/01 06:54:50;;;;;;;0.30;0.30;;;6.30;99.90;;;;;;4378185;32;20449;-75
2024/02/01 06:57:22;;;;;;;0.30;0.30;;;6.30;99.90;;;;;;4378401;32;20093;-76
2024/02/01 07:02:51;;;;;;;0.40;0.40;;;6.40;99.90;;;;;;4372069;32;20122;-77
2024/02/01 07:08:13;;;;;;;0.80;0.70;;;6.50;99.90;;;;;;4361757;32;20181;-76
2024/02/01 07:10:43;;;;;;;0.40;0.40;;;6.50;99.90;;;;;;4368112;32;20708;-77
2024/02/01 07:13:21;;;;;;;0.70;0.70;;;6.50;99.90;;;;;;4380612;32;20109;-78
2024/02/01 07:15:52;;;;;;;2.92;1.20;;;6.50;99.90;;;;;;4375625;32;21104;-77
2024/02/01 07:18:20;;;;;;;0.60;0.60;;;6.50;99.90;;;;;;4375160;32;21033;-77
2024/02/01 07:20:50;;;;;;;4.90;1.12;;;6.50;99.90;;;;;;4379351;32;20092;-75
2024/02/01 07:25:48;;;;;;;0.40;0.40;;;6.50;99.90;;;;;;4380134;32;20071;-77
2024/02/01 07:57:58;;;;;;;0.50;0.50;;;6.70;99.90;;;;;;4363148;32;20089;-76
2024/02/01 07:58:43;;;;;;;0.45;0.45;;;6.70;99.90;;;;;;4367489;32;20106;-75
2024/02/01 08:01:18;;;;;;;0.57;0.57;;;6.80;99.90;;;;;;4377627;32;20633;-76
2024/02/01 08:04:17;;;;;;;0.35;0.35;;;6.70;99.90;;;;;;4379265;32;20553;-77
2024/02/01 08:07:48;;;;;;;3.72;0.62;;;6.80;99.90;;;;;;4381417;32;20098;-77
2024/02/01 08:09:16;;;;;;;0.40;0.40;;;6.80;99.90;;;;;;4368704;32;20095;-77
2024/02/01 08:11:42;;;;;;;0.93;0.32;;;6.90;99.90;;;;;;4374171;32;20099;-76
2024/02/01 08:14:10;;;;;;;0.50;0.50;;;6.90;99.90;;;;;;4378490;32;20176;-77
2024/02/01 08:16:35;;;;;;;0.30;0.30;;;6.90;99.90;;;;;;4373672;32;20099;-76
2024/02/01 08:19:01;;;;;;;0.68;0.68;;;6.90;99.90;;;;;;4372596;32;20257;-75
2024/02/01 08:21:32;;;;;;;0.55;0.55;;;7.00;99.90;;;;;;4373010;32;21372;-76
2024/02/01 08:23:57;;;;;;;0.50;0.50;;;6.90;99.90;;;;;;4371397;32;20112;-77
2024/02/01 08:26:37;;;;;;;3.10;0.82;;;7.00;99.90;;;;;;4375918;32;20515;-76
2024/02/01 08:29:06;;;;;;;0.50;0.50;;;7.00;99.90;;;;;;4385005;32;20461;-77
2024/02/01 08:31:36;;;;;;;2.72;0.80;;;7.10;99.90;;;;;;4382473;32;20321;-77
2024/02/01 08:34:05;;;;;;;20.30;0.85;;;7.10;99.90;;;;;;4387571;32;20093;-77
2024/02/01 08:36:34;;;;;;;0.62;0.62;;;7.10;99.90;;;;;;4388923;32;20100;-78
2024/02/01 08:39:00;;;;;;;2.00;0.93;;;7.10;99.90;;;;;;4389634;32;20073;-77
2024/02/01 08:41:27;;;;;;;1.45;0.88;;;7.10;99.90;;;;;;4394635;32;20123;-77
2024/02/01 08:43:54;;;;;;;0.30;0.30;;;7.10;99.90;;;;;;4393086;32;20538;-77
2024/02/01 08:46:22;;;;;;;1.55;0.57;;;7.20;99.90;;;;;;4390325;32;20093;-76
2024/02/01 08:48:49;;;;;;;0.40;0.40;;;7.20;99.90;;;;;;4380348;32;20077;-77
2024/02/01 08:51:17;;;;;;;0.30;0.30;;;7.20;99.90;;;;;;4384758;32;20740;-76
2024/02/01 08:53:44;;;;;;;0.30;0.30;;;7.30;99.90;;;;;;4386472;32;20834;-77
2024/02/01 08:56:11;;;;;;;0.37;0.37;;;7.30;99.90;;;;;;4385423;32;20699;-77
2024/02/01 08:58:38;;;;;;;0.40;0.40;;;7.20;99.90;;;;;;4377033;32;20117;-77
2024/02/01 09:01:05;;;;;;;1.17;1.08;;;7.40;99.90;;;;;;4375012;32;20090;-77
2024/02/01 09:03:32;;;;;;;0.60;0.60;;;7.50;99.90;;;;;;4388893;32;20139;-76
2024/02/01 09:06:08;;;;;;;0.43;0.43;;;7.50;99.90;;;;;;4380348;32;20101;-78
2024/02/01 09:08:35;;;;;;;0.30;0.30;;;7.50;99.90;;;;;;4381206;32;20089;-76
2024/02/01 09:11:09;;;;;;;0.30;0.30;;;7.50;99.90;;;;;;4378348;32;20197;-77
2024/02/01 09:13:35;;;;;;;0.57;0.57;;;7.50;99.90;;;;;;4381423;32;20120;-75
2024/02/01 09:16:02;;;;;;;0.40;0.40;;;7.60;99.90;;;;;;4372320;32;20524;-77
2024/02/01 09:18:28;;;;;;;0.40;0.40;;;7.70;99.90;;;;;;4378674;32;20125;-76
2024/02/01 09:20:53;;;;;;;0.30;0.30;;;7.60;99.90;;;;;;4378045;32;20156;-76
2024/02/01 09:23:19;;;;;;;0.68;0.68;;;7.70;99.90;;;;;;4367453;32;20094;-75
2024/02/01 09:25:45;;;;;;;1.45;1.20;;;7.80;99.90;;;;;;4373256;32;20513;-77
2024/02/01 09:28:12;;;;;;;0.60;0.60;;;8.00;99.90;;;;;;4370987;32;20730;-77
2024/02/01 09:30:48;;;;;;;0.40;0.40;;;8.10;99.90;;;;;;4378863;32;20878;-77
2024/02/01 09:33:16;;;;;;;0.95;0.82;;;8.10;99.90;;;;;;4375519;32;20699;-77
2024/02/01 09:35:43;;;;;;;0.35;0.35;;;8.20;99.90;;;;;;4379823;32;20109;-78
2024/02/01 09:38:09;;;;;;;0.62;0.57;;;8.30;99.90;;;;;;4378169;32;20520;-76
2024/02/01 09:40:41;;;;;;;1.10;0.70;;;8.30;99.90;;;;;;4380980;32;20133;-76
2024/02/01 09:43:25;;;;;;;0.35;0.35;;;8.30;99.90;;;;;;4380390;32;20105;-76
2024/02/01 09:45:56;;;;;;;0.30;0.30;;;8.30;99.90;;;;;;4384980;32;20081;-77
2024/02/01 09:48:21;;;;;;;10.80;0.85;;;8.40;99.90;;;;;;4377263;32;21040;-76
2024/02/01 09:50:52;;;;;;;0.30;0.30;;;8.50;99.90;;;;;;4373248;32;20184;-77
2024/02/01 09:53:25;;;;;;;0.32;0.32;;;8.40;99.90;;;;;;4379988;32;20568;-79
2024/02/01 09:55:53;;;;;;;0.30;0.30;;;8.50;99.90;;;;;;4378237;32;21281;-79
2024/02/01 09:58:20;;;;;;;6.60;1.15;;;8.60;99.90;;;;;;4375871;32;20710;-79
2024/02/01 10:00:47;;;;;;;3.60;1.05;;;8.80;99.90;;;;;;4377179;32;20085;-78
2024/02/01 10:03:23;;;;;;;1.48;0.95;;;8.90;99.90;;;;;;4374027;32;20338;-78
2024/02/01 10:05:50;;;;;;;0.47;0.47;;;9.00;99.90;;;;;;4380015;32;20090;-77
2024/02/01 10:08:19;;;;;;;0.30;0.30;;;8.90;99.90;;;;;;4377227;32;20636;-78
2024/02/01 10:10:46;;;;;;;0.52;0.40;;;9.00;99.90;;;;;;4382726;32;20086;-77
2024/02/01 10:13:13;;;;;;;0.50;0.50;;;9.00;99.90;;;;;;4369092;32;20101;-78
2024/02/01 10:15:47;;;;;;;2.17;1.00;;;9.00;99.90;;;;;;4373557;32;20099;-78
2024/02/01 10:18:15;;;;;;;0.50;0.50;;;9.10;99.90;;;;;;4370987;32;20106;-78
2024/02/01 10:20:47;;;;;;;0.40;0.40;;;9.00;99.90;;;;;;4369114;32;20818;-78
2024/02/01 10:23:13;;;;;;;1.17;0.60;;;9.00;99.90;;;;;;4371258;32;20547;-78
2024/02/01 10:26:18;;;;;;;1.92;1.73;;;8.90;99.90;;;;;;4379763;32;20089;-77
2024/02/01 10:28:43;;;;;;;1.10;0.85;;;8.90;99.90;;;;;;4360492;32;20140;-77
2024/02/01 10:31:11;;;;;;;0.40;0.40;;;9.00;99.90;;;;;;4368045;32;20541;-77
2024/02/01 10:33:39;;;;;;;1.08;0.82;;;9.20;99.90;;;;;;4365580;32;20073;-78
2024/02/01 10:36:08;;;;;;;0.80;0.50;;;9.20;99.90;;;;;;4375870;32;20090;-78
2024/02/01 10:38:35;;;;;;;0.73;0.73;;;9.20;99.90;;;;;;4375515;32;20109;-78
2024/02/01 10:41:16;;;;;;;0.40;0.40;;;9.20;99.90;;;;;;4380311;32;20093;-78
2024/02/01 10:43:44;;;;;;;0.35;0.35;;;9.20;99.90;;;;;;4383644;32;20827;-77
2024/02/01 10:46:18;;;;;;;2.08;1.10;;;9.10;99.90;;;;;;4377667;32;20782;-76
2024/02/01 10:48:50;;;;;;;13.15;0.85;;;9.10;99.90;;;;;;4376166;32;20651;-76
2024/02/01 10:51:17;;;;;;;0.30;0.30;;;9.20;99.90;;;;;;4379586;32;20517;-75
2024/02/01 10:53:44;;;;;;;0.30;0.30;;;9.20;99.90;;;;;;4377499;32;20643;-77
2024/02/01 10:56:14;;;;;;;0.45;0.45;;;9.20;99.90;;;;;;4379489;32;20097;-76
2024/02/01 10:58:46;;;;;;;1.27;1.15;;;9.20;99.90;;;;;;4374478;32;20102;-76
2024/02/01 11:01:16;;;;;;;0.65;0.62;;;9.20;99.90;;;;;;4373826;32;20110;-78
2024/02/01 11:03:46;;;;;;;0.70;0.60;;;9.10;99.90;;;;;;4381746;32;20065;-77
2024/02/01 11:06:11;;;;;;;0.60;0.60;;;9.10;99.90;;;;;;4384817;32;20114;-76
2024/02/01 11:08:40;;;;;;;0.60;0.60;;;9.00;99.90;;;;;;4384442;32;20077;-76
2024/02/01 11:11:16;;;;;;;2.17;0.50;;;9.00;99.90;;;;;;4386928;32;20101;-75
2024/02/01 11:13:48;;;;;;;0.30;0.30;;;9.10;99.90;;;;;;4382818;32;20774;-75
2024/02/01 11:16:14;;;;;;;0.57;0.57;;;9.00;99.90;;;;;;4379726;32;20082;-77
2024/02/01 11:18:50;;;;;;;4.95;0.50;;;9.00;99.90;;;;;;4369345;32;21669;-75
2024/02/01 11:21:27;;;;;;;0.30;0.30;;;9.20;99.90;;;;;;4378398;32;20451;-76
2024/02/01 11:24:07;;;;;;;0.55;0.55;;;9.30;99.90;;;;;;4381864;32;20138;-77
2024/02/01 11:26:42;;;;;;;0.50;0.50;;;9.40;99.90;;;;;;4376703;32;20125;-76
2024/02/01 11:29:10;;;;;;;0.35;0.35;;;9.70;99.90;;;;;;4375172;32;20169;-76
2024/02/01 11:31:43;;;;;;;0.40;0.40;;;9.70;99.90;;;;;;4386676;32;20106;-77
2024/02/01 11:34:08;;;;;;;0.35;0.35;;;9.60;99.90;;;;;;4389249;32;20097;-75
2024/02/01 11:36:35;;;;;;;0.30;0.30;;;9.40;99.90;;;;;;4385965;32;20662;-77
2024/02/01 11:39:02;;;;;;;2.95;1.37;;;9.20;99.90;;;;;;4382136;32;20440;-77
2024/02/01 11:41:30;;;;;;;19.85;1.90;;;8.90;99.90;;;;;;4380483;32;20073;-77
2024/02/01 11:43:57;;;;;;;0.40;0.40;;;8.90;99.90;;;;;;4386464;32;20102;-77
2024/02/01 11:46:24;;;;;;;0.40;0.40;;;9.00;99.90;;;;;;4386586;32;20564;-77
2024/02/01 11:48:49;;;;;;;22.73;1.15;;;9.10;99.90;;;;;;4378886;32;20101;-77
2024/02/01 11:51:16;;;;;;;0.93;0.70;;;9.00;99.90;;;;;;4383136;32;122177;-77
2024/02/01 11:53:41;;;;;;;2.92;1.05;;;9.00;99.90;;;;;;4380780;32;20550;-77
2024/02/01 11:56:07;;;;;;;0.37;0.37;;;9.20;99.90;;;;;;4366305;32;20078;-77
2024/02/01 11:58:33;;;;;;;1.92;1.02;;;9.30;99.90;;;;;;4373616;32;20833;-78
2024/02/01 12:01:00;;;;;;;0.30;0.30;;;;;;;;;;4378122;32;20702;-78
2024/02/01 12:03:32;;;;;;;0.30;0.30;;;10.00;99.90;;;;;;4385075;32;20667;-78
2024/02/01 12:05:59;;;;;;;1.08;0.65;;;10.60;99.90;;;;;;4385674;32;20090;-78
2024/02/01 12:08:25;;;;;;;4.47;1.80;;;10.80;99.90;;;;;;4389656;32;20149;-78
2024/02/01 12:10:55;;;;;;;1.25;1.10;;;11.30;99.90;;;;;;4383648;32;20904;-75
2024/02/01 12:13:22;;;;;;;0.30;0.30;;;11.50;99.90;;;;;;4386754;32;20081;-77
2024/02/01 12:15:52;;;;;;;0.90;0.68;;;11.70;99.90;;;;;;4382208;32;20106;-79
2024/02/01 12:18:18;;;;;;;2.45;1.20;;;11.90;99.90;;;;;;4383860;32;20591;-77
2024/02/01 12:20:47;;;;;;;0.52;0.52;;;11.70;99.90;;;;;;4379678;32;20462;-77
2024/02/01 12:23:15;;;;;;;0.30;0.30;;;11.50;99.90;;;;;;4384632;32;20078;-77
2024/02/01 12:25:46;;;;;;;0.30;0.30;;;11.60;99.90;;;;;;4382093;32;20101;-78
2024/02/01 12:28:11;;;;;;;0.60;0.60;;;11.60;99.90;;;;;;4379296;32;21124;-76
2024/02/01 12:30:42;;;;;;;0.50;0.50;;;11.60;99.90;;;;;;4379594;32;20686;-77
2024/02/01 12:33:14;;;;;;;13.55;1.58;;;11.20;99.90;;;;;;4384656;32;20523;-78
2024/02/01 12:35:41;;;;;;;0.45;0.45;;;11.00;99.90;;;;;;4382015;32;20078;-77
2024/02/01 12:38:09;;;;;;;9.43;3.10;;;10.60;99.90;;;;;;4380473;32;20164;-76
2024/02/01 12:40:38;;;;;;;0.82;0.75;;;10.60;99.90;;;;;;4387009;32;20093;-78
2024/02/01 12:43:04;;;;;;;0.65;0.65;;;11.10;99.90;;;;;;4391858;32;20119;-77
2024/02/01 12:45:32;;;;;;;1.08;0.60;;;11.40;99.90;;;;;;4393889;32;20114;-76
2024/02/01 12:47:59;;;;;;;0.40;0.40;;;11.60;99.90;;;;;;4394924;32;20081;-77
2024/02/01 12:50:26;;;;;;;0.82;0.80;;;11.60;99.90;;;;;;4383872;32;20093;-77
2024/02/01 12:52:52;;;;;;;0.40;0.40;;;11.90;99.90;;;;;;4393207;32;20064;-77
2024/02/01 12:55:18;;;;;;;0.28;0.28;;;12.00;99.90;;;;;;4397201;32;20065;-77
2024/02/01 12:57:50;;;;;;;0.88;0.88;;;11.70;99.90;;;;;;4395262;32;20162;-77
2024/02/01 13:00:15;;;;;;;0.40;0.40;;;11.90;99.90;;;;;;4395245;32;20077;-78
2024/02/01 13:02:41;;;;;;;0.88;0.80;;;11.80;99.90;;;;;;4393131;32;20086;-78
2024/02/01 13:05:09;;;;;;;0.35;0.35;;;11.60;99.90;;;;;;4394875;32;20298;-79
2024/02/01 13:07:35;;;;;;;0.40;0.40;;;11.20;99.90;;;;;;4396822;32;20227;-78
2024/02/01 13:10:08;;;;;;;11.50;2.08;;;11.10;99.90;;;;;;4399123;32;20069;-76
2024/02/01 13:12:35;;;;;;;0.40;0.40;;;11.30;99.90;;;;;;4397121;32;20097;-78
2024/02/01 13:15:02;;;;;;;0.30;0.30;;;11.20;99.90;;;;;;4396155;32;20121;-76
2024/02/01 13:17:29;;;;;;;0.50;0.50;;;11.00;99.90;;;;;;4396265;32;20093;-76
2024/02/01 13:19:55;;;;;;;1.05;1.05;;;;;;;;;;4395538;32;20435;-77
2024/02/01 13:22:29;;;;;;;4.85;1.10;;;10.20;99.90;;;;;;4402642;32;20791;-78
2024/02/01 13:24:54;;;;;;;0.32;0.32;;;10.60;99.90;;;;;;4401632;32;20141;-76
2024/02/01 13:27:20;;;;;;;3.30;0.47;;;10.40;99.90;;;;;;4392650;32;20093;-77
2024/02/01 13:29:46;;;;;;;6.05;1.23;;;10.10;99.90;;;;;;4399907;32;20089;-77
2024/02/01 13:32:13;;;;;;;1.10;0.95;;;10.10;99.90;;;;;;4399225;32;20089;-76
2024/02/01 13:34:39;;;;;;;0.37;0.37;;;10.10;99.90;;;;;;4400160;32;20469;-77
2024/02/01 13:37:06;;;;;;;0.47;0.47;;;10.10;99.90;;;;;;4400239;32;20554;-77
2024/02/01 13:39:33;;;;;;;0.20;0.20;;;9.80;99.90;;;;;;4394985;32;20142;-77
2024/02/01 13:42:02;;;;;;;0.57;0.57;;;9.70;99.90;;;;;;4391536;32;20597;-78
2024/02/01 13:44:28;;;;;;;0.40;0.40;;;9.70;99.90;;;;;;4398190;32;20137;-76
2024/02/01 13:46:54;;;;;;;4.47;1.87;;;9.60;99.90;;;;;;4397228;32;20550;-75
2024/02/01 13:49:20;;;;;;;28.75;0.82;;;9.30;99.90;;;;;;4399107;32;20101;-75